Time;durP1;ratioP1;P1;durP2;ratioP2;P2;SDS_P1;SDS_P2;PMS_P1;PMS_P2;Temp;Humidity;BMP_temperature;BMP_pressure;BME280_temperature;BME280_humidity;BME280_pressure;Samples;Min_cycle;Max_cycle;Signal;HPM_P1;HPM_P2
2021/03/07 00:00:12;;;;;;;11.18;6.80;;;13.10;59.70;;;;;;5072610;28;20032;-72
2021/03/07 00:02:39;;;;;;;11.75;6.88;;;13.10;59.50;;;;;;5072833;28;20513;-71
2021/03/07 00:05:06;;;;;;;12.02;6.40;;;13.10;59.60;;;;;;5054669;28;20050;-72
2021/03/07 00:07:32;;;;;;;10.55;7.03;;;13.00;59.50;;;;;;5072992;28;20412;-72
2021/03/07 00:09:58;;;;;;;11.43;6.47;;;13.00;59.70;;;;;;5072596;28;20020;-71
2021/03/07 00:12:23;;;;;;;12.90;6.55;;;12.90;59.70;;;;;;5072824;28;20039;-72
2021/03/07 00:14:49;;;;;;;9.05;6.18;;;12.90;59.60;;;;;;5072562;28;20024;-70
2021/03/07 00:17:15;;;;;;;10.95;6.35;;;12.80;59.40;;;;;;5072408;28;20053;-71
2021/03/07 00:19:41;;;;;;;16.55;7.20;;;12.70;59.60;;;;;;5072243;28;20486;-71
2021/03/07 00:22:07;;;;;;;11.70;7.07;;;12.70;59.70;;;;;;5072600;28;20028;-71
2021/03/07 00:24:32;;;;;;;12.80;6.45;;;12.70;59.80;;;;;;5075274;28;20032;-72
2021/03/07 00:26:58;;;;;;;10.02;6.53;;;12.60;59.80;;;;;;5076345;28;20044;-70
2021/03/07 00:29:24;;;;;;;9.25;6.05;;;12.60;60.20;;;;;;5076312;28;20470;-71
2021/03/07 00:31:50;;;;;;;10.13;6.25;;;12.60;59.90;;;;;;5076429;28;20021;-71
2021/03/07 00:34:16;;;;;;;11.30;7.00;;;12.50;60.00;;;;;;5076195;28;20032;-70
2021/03/07 00:36:41;;;;;;;12.25;6.28;;;12.60;60.00;;;;;;5076018;28;20031;-74
2021/03/07 00:39:07;;;;;;;13.05;6.28;;;12.70;60.10;;;;;;5076043;28;20366;-71
2021/03/07 00:41:34;;;;;;;14.70;6.85;;;12.70;60.00;;;;;;5075960;28;20095;-71
2021/03/07 00:44:00;;;;;;;11.02;6.32;;;12.70;60.00;;;;;;5075902;28;20033;-71
2021/03/07 00:46:26;;;;;;;10.63;6.45;;;12.80;60.10;;;;;;5057806;28;20029;-71
2021/03/07 00:48:51;;;;;;;9.57;5.90;;;12.70;60.10;;;;;;5075836;28;20090;-73
2021/03/07 00:51:17;;;;;;;11.77;6.25;;;12.60;60.10;;;;;;5075890;28;20108;-71
2021/03/07 00:53:43;;;;;;;13.82;6.85;;;12.50;60.20;;;;;;5075637;28;20103;-72
2021/03/07 00:56:08;;;;;;;11.15;6.57;;;12.50;60.50;;;;;;5075648;28;20023;-71
2021/03/07 00:58:34;;;;;;;13.52;6.93;;;12.60;60.30;;;;;;5075696;28;20379;-71
2021/03/07 01:01:00;;;;;;;11.57;6.32;;;12.60;60.10;;;;;;5075817;28;20029;-71
2021/03/07 01:03:25;;;;;;;13.48;6.80;;;12.50;60.20;;;;;;5075615;28;20029;-71
2021/03/07 01:05:51;;;;;;;13.02;6.53;;;12.50;60.10;;;;;;5057437;28;20059;-71
2021/03/07 01:08:17;;;;;;;11.32;7.03;;;12.50;60.20;;;;;;5075496;28;20028;-71
2021/03/07 01:10:44;;;;;;;12.23;6.65;;;12.60;60.20;;;;;;5075447;28;20505;-71
2021/03/07 01:13:16;;;;;;;13.38;6.25;;;12.70;59.70;;;;;;5075453;28;20059;-71
2021/03/07 01:15:42;;;;;;;11.93;6.88;;;12.70;59.50;;;;;;5075010;28;20051;-73
2021/03/07 01:18:08;;;;;;;10.15;5.72;;;12.60;59.50;;;;;;5075605;28;20035;-70
2021/03/07 01:20:35;;;;;;;12.25;6.25;;;12.50;59.40;;;;;;5074732;28;20025;-71
2021/03/07 01:23:01;;;;;;;11.60;6.25;;;12.50;59.60;;;;;;5075190;28;20028;-72
2021/03/07 01:25:33;;;;;;;10.18;6.38;;;12.50;59.40;;;;;;5057068;28;20031;-72
2021/03/07 01:28:04;;;;;;;12.00;7.57;;;12.50;59.30;;;;;;5057347;28;20033;-70
2021/03/07 01:30:31;;;;;;;15.13;6.45;;;12.40;59.40;;;;;;5075281;28;20504;-72
2021/03/07 01:32:57;;;;;;;12.00;6.47;;;12.30;59.20;;;;;;5075055;28;20529;-72
2021/03/07 01:35:23;;;;;;;10.10;6.20;;;12.30;59.40;;;;;;5056582;28;20162;-72
2021/03/07 01:37:50;;;;;;;11.93;6.68;;;12.20;59.40;;;;;;5075039;28;20063;-73
2021/03/07 01:40:19;;;;;;;11.05;6.07;;;12.30;59.70;;;;;;5074991;28;20086;-72
2021/03/07 01:42:50;;;;;;;10.75;6.75;;;12.50;59.50;;;;;;5074813;28;20377;-71
2021/03/07 01:45:20;;;;;;;9.40;6.15;;;12.40;59.20;;;;;;5074924;28;20104;-71
2021/03/07 01:47:49;;;;;;;11.85;6.55;;;12.30;59.30;;;;;;5074828;28;20024;-70
2021/03/07 01:50:17;;;;;;;11.48;6.93;;;12.40;59.40;;;;;;5074819;28;20088;-71
2021/03/07 01:52:43;;;;;;;11.73;6.35;;;12.30;59.20;;;;;;5074656;28;20024;-71
2021/03/07 01:55:10;;;;;;;11.57;6.22;;;12.30;59.30;;;;;;5074602;28;20099;-71
2021/03/07 01:57:37;;;;;;;16.52;7.20;;;12.30;59.50;;;;;;5074272;28;20393;-70
2021/03/07 02:00:07;;;;;;;12.63;7.20;;;12.40;59.40;;;;;;5074246;28;20068;-70
2021/03/07 02:02:33;;;;;;;11.77;6.28;;;12.40;59.30;;;;;;5074250;28;20052;-71
2021/03/07 02:04:58;;;;;;;10.35;6.28;;;12.30;59.10;;;;;;5074335;28;20056;-71
2021/03/07 02:07:24;;;;;;;10.48;6.13;;;12.20;59.30;;;;;;5074172;28;20378;-71
2021/03/07 02:09:51;;;;;;;11.32;7.10;;;12.20;59.70;;;;;;5074065;28;20375;-70
2021/03/07 02:12:19;;;;;;;10.85;6.90;;;12.20;59.90;;;;;;5074105;28;20044;-70
2021/03/07 02:14:48;;;;;;;9.45;6.20;;;12.20;59.30;;;;;;5074059;28;20023;-72
2021/03/07 02:17:15;;;;;;;13.13;6.57;;;12.30;59.50;;;;;;5074040;28;20048;-70
2021/03/07 02:19:41;;;;;;;10.90;6.60;;;12.30;59.70;;;;;;5073890;28;20033;-71
2021/03/07 02:22:13;;;;;;;10.48;6.65;;;12.20;59.50;;;;;;5073957;28;20530;-71
2021/03/07 02:24:38;;;;;;;12.90;7.25;;;12.20;59.50;;;;;;5074055;28;20077;-70
2021/03/07 02:27:05;;;;;;;12.35;6.80;;;12.20;59.70;;;;;;5073834;28;20108;-70
2021/03/07 02:29:30;;;;;;;12.88;6.95;;;12.20;59.80;;;;;;5073879;28;20017;-71
2021/03/07 02:31:58;;;;;;;12.88;6.65;;;12.20;59.60;;;;;;5073913;28;20060;-73
2021/03/07 02:34:32;;;;;;;12.13;6.47;;;12.00;59.70;;;;;;5073858;28;20032;-71
2021/03/07 02:37:01;;;;;;;11.40;6.63;;;12.00;60.30;;;;;;5073836;28;20079;-71
2021/03/07 02:39:31;;;;;;;10.63;6.20;;;12.10;59.70;;;;;;5055711;28;20036;-71
2021/03/07 02:42:04;;;;;;;14.45;7.35;;;12.00;59.40;;;;;;5073866;28;20020;-70
2021/03/07 02:44:35;;;;;;;14.48;6.60;;;11.90;59.70;;;;;;5073606;28;20023;-70
2021/03/07 02:47:01;;;;;;;10.27;6.20;;;11.90;59.70;;;;;;5073024;28;20032;-71
2021/03/07 02:49:29;;;;;;;17.08;6.97;;;11.80;59.90;;;;;;5073577;28;20414;-72
2021/03/07 02:51:57;;;;;;;14.23;6.75;;;11.90;59.80;;;;;;5073203;28;20032;-71
2021/03/07 02:54:25;;;;;;;14.38;6.10;;;11.90;59.90;;;;;;5055455;28;20035;-71
2021/03/07 02:56:53;;;;;;;12.60;6.65;;;11.80;60.00;;;;;;5073261;28;20082;-70
2021/03/07 02:59:22;;;;;;;10.43;6.47;;;12.00;60.00;;;;;;5073459;28;20036;-70
2021/03/07 03:01:53;;;;;;;10.65;6.05;;;12.00;59.90;;;;;;5073272;28;20028;-70
2021/03/07 03:04:20;;;;;;;12.57;6.03;;;12.00;59.70;;;;;;5073780;28;20024;-71
2021/03/07 03:06:46;;;;;;;14.98;5.97;;;12.10;59.60;;;;;;5073512;28;20025;-71
2021/03/07 03:09:12;;;;;;;11.63;6.05;;;12.00;59.60;;;;;;5073288;28;20437;-70
2021/03/07 03:11:40;;;;;;;14.20;6.03;;;11.90;59.90;;;;;;5073341;28;20024;-70
2021/03/07 03:14:12;;;;;;;12.13;6.15;;;11.90;59.90;;;;;;5073780;28;20028;-70
2021/03/07 03:16:39;;;;;;;11.52;6.30;;;11.90;59.80;;;;;;5072989;28;20516;-70
2021/03/07 03:19:10;;;;;;;13.77;6.32;;;11.80;59.60;;;;;;5073016;28;20052;-70
2021/03/07 03:21:37;;;;;;;12.20;6.18;;;11.70;59.70;;;;;;5073359;28;20021;-70
2021/03/07 03:24:03;;;;;;;16.42;7.38;;;11.50;59.70;;;;;;5073282;28;20029;-70
2021/03/07 03:26:29;;;;;;;12.15;6.43;;;11.40;60.30;;;;;;5072979;28;20582;-71
2021/03/07 03:28:56;;;;;;;12.07;6.60;;;11.50;60.20;;;;;;5073069;28;20028;-71
2021/03/07 03:31:22;;;;;;;8.93;5.60;;;11.40;60.00;;;;;;5073062;28;20029;-70
2021/03/07 03:33:49;;;;;;;13.15;6.20;;;11.50;60.50;;;;;;5073142;28;20028;-70
2021/03/07 03:36:15;;;;;;;12.32;6.13;;;11.50;60.20;;;;;;5073089;28;20017;-70
2021/03/07 03:38:45;;;;;;;10.93;6.38;;;11.40;60.20;;;;;;5073063;28;20087;-71
2021/03/07 03:41:11;;;;;;;16.13;6.53;;;11.40;60.30;;;;;;5072999;28;20494;-70
2021/03/07 03:43:40;;;;;;;10.23;6.38;;;11.40;60.40;;;;;;5072853;28;20028;-71
2021/03/07 03:46:08;;;;;;;12.07;6.60;;;11.50;60.00;;;;;;5072937;28;20054;-70
2021/03/07 03:48:38;;;;;;;12.02;5.60;;;11.50;60.00;;;;;;5072845;28;20413;-70
2021/03/07 03:51:06;;;;;;;12.13;6.28;;;11.60;60.30;;;;;;5073106;28;20048;-70
2021/03/07 03:53:33;;;;;;;11.70;6.30;;;11.60;60.00;;;;;;5072978;28;20082;-70
2021/03/07 03:56:00;;;;;;;12.82;6.72;;;11.50;59.80;;;;;;5072781;28;20059;-69
2021/03/07 03:58:30;;;;;;;10.13;6.20;;;11.60;60.20;;;;;;5056901;28;20028;-71
2021/03/07 04:00:57;;;;;;;11.13;6.28;;;11.70;60.10;;;;;;5076854;28;20024;-70
2021/03/07 04:03:24;;;;;;;13.68;6.47;;;11.60;60.10;;;;;;5077046;28;20454;-71
2021/03/07 04:05:52;;;;;;;17.13;6.95;;;11.70;59.90;;;;;;5076759;28;20028;-71
2021/03/07 04:08:20;;;;;;;9.00;6.00;;;11.60;59.90;;;;;;5076784;28;20075;-70
2021/03/07 04:10:47;;;;;;;12.77;6.30;;;11.50;60.00;;;;;;5076835;28;20021;-70
2021/03/07 04:13:18;;;;;;;10.07;5.82;;;11.40;60.10;;;;;;5076781;28;20024;-70
2021/03/07 04:15:45;;;;;;;10.85;6.50;;;11.50;60.10;;;;;;5076499;28;20044;-70
2021/03/07 04:18:14;;;;;;;12.18;6.28;;;11.40;60.40;;;;;;5076707;28;20078;-70
2021/03/07 04:20:42;;;;;;;13.02;6.82;;;11.40;60.60;;;;;;5076989;28;20024;-72
2021/03/07 04:23:08;;;;;;;17.55;6.15;;;11.50;61.00;;;;;;5076289;28;20024;-71
2021/03/07 04:25:34;;;;;;;10.93;6.20;;;11.60;61.20;;;;;;5076130;28;20032;-71
2021/03/07 04:28:01;;;;;;;11.35;6.75;;;11.70;60.90;;;;;;5076427;28;20462;-73
2021/03/07 04:30:27;;;;;;;12.45;6.38;;;11.60;60.90;;;;;;5076342;28;20024;-72
2021/03/07 04:32:54;;;;;;;10.38;6.00;;;11.70;60.90;;;;;;5076296;28;20028;-71
2021/03/07 04:35:19;;;;;;;11.50;6.25;;;11.60;60.60;;;;;;5076135;28;20036;-72
2021/03/07 04:37:45;;;;;;;12.23;5.93;;;11.60;61.00;;;;;;5076106;28;20021;-71
2021/03/07 04:40:12;;;;;;;10.68;5.68;;;11.40;61.10;;;;;;5076143;28;20499;-71
2021/03/07 04:42:40;;;;;;;11.20;6.05;;;11.40;61.40;;;;;;5076438;28;20031;-71
2021/03/07 04:45:07;;;;;;;11.60;6.60;;;11.40;61.20;;;;;;5076071;28;20024;-72
2021/03/07 04:47:32;;;;;;;11.05;6.40;;;11.30;61.40;;;;;;5075984;28;20020;-70
2021/03/07 04:49:58;;;;;;;13.25;6.05;;;11.30;61.60;;;;;;5075901;28;20359;-71
2021/03/07 04:52:24;;;;;;;9.70;5.50;;;11.30;61.10;;;;;;5075832;28;20522;-70
2021/03/07 04:54:50;;;;;;;10.55;6.18;;;11.40;61.60;;;;;;5075942;28;20028;-70
2021/03/07 04:57:16;;;;;;;9.68;6.22;;;11.30;61.40;;;;;;5076015;28;20028;-71
2021/03/07 04:59:42;;;;;;;11.45;5.97;;;11.30;61.30;;;;;;5075510;28;20028;-70
2021/03/07 05:02:07;;;;;;;10.98;6.15;;;11.30;61.70;;;;;;5075720;28;20059;-70
2021/03/07 05:04:33;;;;;;;9.73;5.65;;;11.40;61.40;;;;;;5075954;28;20039;-70
2021/03/07 05:07:02;;;;;;;12.27;6.07;;;11.40;61.70;;;;;;5075392;28;20461;-71
2021/03/07 05:09:28;;;;;;;10.30;6.18;;;11.40;61.20;;;;;;5075016;28;20032;-70
2021/03/07 05:11:54;;;;;;;12.13;6.20;;;11.40;61.30;;;;;;5075289;28;20066;-70
2021/03/07 05:14:20;;;;;;;14.25;7.03;;;11.50;61.50;;;;;;5075435;28;20111;-72
2021/03/07 05:16:45;;;;;;;12.32;6.22;;;11.40;61.20;;;;;;5075322;28;20115;-71
2021/03/07 05:19:11;;;;;;;11.23;6.80;;;11.30;61.40;;;;;;5075435;28;20040;-69
2021/03/07 05:21:37;;;;;;;13.13;6.25;;;11.20;61.70;;;;;;5075362;28;20058;-71
2021/03/07 05:24:03;;;;;;;13.50;6.28;;;11.10;61.80;;;;;;5075013;28;20062;-71
2021/03/07 05:26:29;;;;;;;13.57;6.32;;;11.10;62.30;;;;;;5075104;28;20020;-71
2021/03/07 05:28:56;;;;;;;10.98;6.40;;;11.20;61.80;;;;;;5075146;28;20060;-71
2021/03/07 05:31:22;;;;;;;15.95;6.20;;;11.30;62.30;;;;;;5075196;28;20078;-70
2021/03/07 05:33:48;;;;;;;9.80;6.25;;;11.20;61.80;;;;;;5075359;28;20047;-72
2021/03/07 05:36:13;;;;;;;11.32;6.20;;;11.30;62.10;;;;;;5074763;28;20440;-71
2021/03/07 05:38:39;;;;;;;12.23;6.80;;;11.20;61.90;;;;;;5074718;28;20040;-71
2021/03/07 05:41:06;;;;;;;13.45;6.32;;;11.20;62.10;;;;;;5074874;28;20048;-71
2021/03/07 05:43:32;;;;;;;13.13;6.40;;;11.00;62.30;;;;;;5074773;28;20060;-71
2021/03/07 05:45:57;;;;;;;14.18;6.97;;;11.00;62.80;;;;;;5074520;28;20044;-71
2021/03/07 05:48:27;;;;;;;11.65;6.28;;;10.90;63.00;;;;;;5074661;28;20070;-71
2021/03/07 05:50:53;;;;;;;13.73;6.85;;;10.90;62.70;;;;;;5074390;28;20020;-69
2021/03/07 05:53:19;;;;;;;10.82;6.22;;;10.80;62.90;;;;;;5074540;28;20023;-70
2021/03/07 05:55:45;;;;;;;11.43;6.40;;;10.80;63.50;;;;;;5074315;28;20470;-72
2021/03/07 05:58:13;;;;;;;12.02;6.20;;;10.80;63.30;;;;;;5074355;28;20029;-71
2021/03/07 06:00:39;;;;;;;12.25;6.53;;;10.80;63.50;;;;;;5074527;28;20393;-71
2021/03/07 06:03:06;;;;;;;12.85;6.30;;;10.90;64.00;;;;;;5074458;28;20366;-70
2021/03/07 06:05:33;;;;;;;16.63;6.38;;;10.80;64.00;;;;;;5074100;28;20044;-71
2021/03/07 06:07:59;;;;;;;12.50;6.80;;;10.80;63.90;;;;;;5074214;28;20096;-70
2021/03/07 06:10:27;;;;;;;12.02;6.20;;;10.90;64.00;;;;;;5074138;28;20127;-72
2021/03/07 06:13:04;;;;;;;15.02;6.85;;;10.90;64.00;;;;;;5074540;28;20021;-71
2021/03/07 06:15:30;;;;;;;14.65;6.82;;;10.80;64.00;;;;;;5073785;28;20029;-72
2021/03/07 06:17:57;;;;;;;13.90;7.10;;;10.80;64.20;;;;;;5073923;28;20021;-71
2021/03/07 06:20:25;;;;;;;13.35;7.10;;;10.90;64.70;;;;;;5073448;28;20039;-71
2021/03/07 06:22:53;;;;;;;13.00;7.93;;;11.00;64.20;;;;;;5073280;28;20544;-72
2021/03/07 06:25:19;;;;;;;13.25;7.57;;;10.90;64.00;;;;;;5073937;28;20491;-72
2021/03/07 06:27:45;;;;;;;12.30;7.38;;;10.90;64.50;;;;;;5073999;28;20025;-72
2021/03/07 06:30:24;;;;;;;13.38;7.78;;;10.90;64.70;;;;;;5073734;28;20056;-72
2021/03/07 06:32:55;;;;;;;12.45;7.18;;;10.80;64.50;;;;;;5073904;28;20025;-72
2021/03/07 06:35:32;;;;;;;13.85;7.25;;;11.00;65.00;;;;;;5073634;28;20167;-73
2021/03/07 06:38:02;;;;;;;11.23;6.50;;;11.10;65.10;;;;;;5073715;28;20028;-75
2021/03/07 06:40:33;;;;;;;11.23;6.70;;;11.10;64.70;;;;;;5073789;28;20044;-72
2021/03/07 06:43:01;;;;;;;12.50;6.28;;;11.20;64.80;;;;;;5073720;28;20031;-71
2021/03/07 06:45:41;;;;;;;11.40;7.32;;;11.20;64.80;;;;;;5055717;28;20453;-74
2021/03/07 06:48:08;;;;;;;12.65;7.18;;;11.20;65.10;;;;;;5073727;28;20025;-71
2021/03/07 06:50:36;;;;;;;14.88;7.38;;;11.20;65.00;;;;;;5073681;28;20032;-70
2021/03/07 06:53:02;;;;;;;12.93;7.50;;;11.20;65.00;;;;;;5055537;28;20048;-70
2021/03/07 06:55:40;;;;;;;13.77;7.35;;;11.20;65.30;;;;;;5073468;28;20032;-71
2021/03/07 06:58:17;;;;;;;13.43;7.38;;;11.10;65.60;;;;;;5073486;28;20029;-71
2021/03/07 07:00:44;;;;;;;12.75;7.20;;;11.10;66.10;;;;;;5073381;28;20504;-71
2021/03/07 07:03:14;;;;;;;14.38;8.00;;;11.30;66.10;;;;;;5073528;28;20039;-71
2021/03/07 07:05:48;;;;;;;14.77;7.80;;;11.40;65.80;;;;;;5073236;28;20067;-71
2021/03/07 07:08:17;;;;;;;13.80;7.75;;;11.40;65.60;;;;;;5073340;28;20412;-70
2021/03/07 07:10:49;;;;;;;10.57;7.85;;;11.40;65.60;;;;;;5073138;28;20032;-71
2021/03/07 07:13:15;;;;;;;17.23;8.70;;;11.40;65.60;;;;;;5073326;28;20047;-70
2021/03/07 07:16:07;;;;;;;13.10;8.15;;;11.50;65.90;;;;;;5072997;28;20048;-71
2021/03/07 07:18:38;;;;;;;15.52;9.35;;;11.50;65.20;;;;;;5073301;28;20028;-71
2021/03/07 07:21:07;;;;;;;14.65;8.88;;;11.50;66.10;;;;;;5073179;28;20035;-71
2021/03/07 07:23:34;;;;;;;13.45;8.65;;;11.40;65.40;;;;;;5073187;28;20013;-71
2021/03/07 07:26:00;;;;;;;14.63;9.20;;;11.60;65.40;;;;;;5054822;28;20032;-71
2021/03/07 07:28:27;;;;;;;15.25;8.35;;;11.60;65.30;;;;;;5073030;28;20435;-71
2021/03/07 07:31:14;;;;;;;14.93;8.25;;;11.70;65.30;;;;;;5073088;28;20374;-74
2021/03/07 07:33:46;;;;;;;15.32;8.30;;;11.70;64.90;;;;;;5072003;28;20068;-71
2021/03/07 07:36:20;;;;;;;14.73;8.63;;;11.80;64.90;;;;;;5072856;28;20028;-71
2021/03/07 07:38:49;;;;;;;12.65;7.82;;;11.60;64.80;;;;;;5073012;28;20040;-72
2021/03/07 07:41:34;;;;;;;14.38;8.35;;;11.60;65.30;;;;;;5054811;28;20335;-72
2021/03/07 07:44:01;;;;;;;13.32;8.10;;;11.70;65.10;;;;;;5073028;28;20381;-72
2021/03/07 07:46:27;;;;;;;12.13;7.50;;;11.80;64.80;;;;;;5072787;28;20059;-73
2021/03/07 07:48:53;;;;;;;14.05;7.72;;;11.80;64.80;;;;;;5073032;28;20032;-72
2021/03/07 07:51:34;;;;;;;12.95;7.45;;;11.90;64.70;;;;;;5072997;28;20017;-72
2021/03/07 07:54:01;;;;;;;12.80;7.45;;;11.80;64.90;;;;;;5072727;28;20017;-71
2021/03/07 07:56:33;;;;;;;13.82;7.88;;;11.80;64.80;;;;;;5054675;28;20025;-75
2021/03/07 07:58:59;;;;;;;12.38;7.63;;;11.80;64.80;;;;;;5073011;28;20064;-73
2021/03/07 08:01:56;;;;;;;11.60;7.63;;;11.80;64.80;;;;;;5054776;28;20109;-73
2021/03/07 08:04:27;;;;;;;12.95;8.10;;;11.90;65.10;;;;;;5072993;28;20060;-73
2021/03/07 08:06:54;;;;;;;12.73;8.02;;;12.00;64.40;;;;;;5072715;28;20020;-72
2021/03/07 08:09:41;;;;;;;12.48;7.65;;;12.00;64.20;;;;;;5073089;28;20025;-71
2021/03/07 08:12:44;;;;;;;14.88;7.70;;;11.90;65.00;;;;;;5072776;28;20020;-72
2021/03/07 08:15:40;;;;;;;10.50;6.90;;;11.80;65.00;;;;;;5072267;28;20396;-72
2021/03/07 08:18:06;;;;;;;16.88;7.30;;;11.70;65.20;;;;;;5043757;28;20087;-71
2021/03/07 08:20:37;;;;;;;10.30;6.68;;;11.60;65.00;;;;;;5072814;28;20500;-70
2021/03/07 08:23:10;;;;;;;11.18;6.55;;;11.50;64.90;;;;;;5072876;28;20036;-71
2021/03/07 08:25:48;;;;;;;13.65;7.40;;;11.50;65.50;;;;;;5072540;28;20104;-72
2021/03/07 08:28:26;;;;;;;10.90;7.20;;;11.50;65.80;;;;;;5072583;28;20474;-71
2021/03/07 08:31:03;;;;;;;13.25;6.82;;;11.40;65.40;;;;;;5072645;28;20032;-70
2021/03/07 08:33:33;;;;;;;11.95;7.10;;;11.50;65.70;;;;;;5072463;28;20013;-70
2021/03/07 08:36:18;;;;;;;12.82;6.47;;;11.50;65.40;;;;;;5072224;28;20102;-72
2021/03/07 08:38:50;;;;;;;12.38;6.65;;;11.80;65.30;;;;;;5072408;28;20033;-72
2021/03/07 08:41:31;;;;;;;12.00;6.55;;;11.90;64.30;;;;;;5054333;28;20060;-74
2021/03/07 08:43:58;;;;;;;12.80;7.30;;;11.90;64.70;;;;;;5072103;28;20520;-71
2021/03/07 08:46:28;;;;;;;11.02;7.00;;;11.80;64.00;;;;;;5075636;28;20519;-70
2021/03/07 08:48:55;;;;;;;10.32;7.28;;;11.80;65.00;;;;;;5075675;28;20020;-73
2021/03/07 08:51:32;;;;;;;12.35;7.20;;;11.90;64.30;;;;;;5076046;28;20029;-70
2021/03/07 08:54:26;;;;;;;12.52;7.00;;;11.80;64.50;;;;;;5075774;28;20032;-71
2021/03/07 08:56:52;;;;;;;13.53;7.70;;;11.80;64.80;;;;;;5072641;28;20025;-72
2021/03/07 08:59:30;;;;;;;12.00;7.03;;;11.60;64.70;;;;;;5075466;28;20624;-72
2021/03/07 09:01:56;;;;;;;11.30;7.40;;;11.60;65.40;;;;;;5075476;28;20151;-71
2021/03/07 09:04:22;;;;;;;14.18;7.72;;;11.50;65.40;;;;;;5075690;28;20467;-70
2021/03/07 09:06:49;;;;;;;12.48;7.97;;;11.50;65.20;;;;;;5075345;28;20036;-72
2021/03/07 09:09:25;;;;;;;14.52;8.20;;;11.50;65.80;;;;;;5075992;28;20378;-76
2021/03/07 09:12:04;;;;;;;16.98;7.95;;;11.60;65.50;;;;;;5076802;28;20021;-73
2021/03/07 09:14:39;;;;;;;13.00;7.82;;;11.60;65.70;;;;;;5078758;28;20535;-74
2021/03/07 09:17:08;;;;;;;13.68;7.78;;;11.80;65.60;;;;;;5076328;28;20040;-71
2021/03/07 09:19:39;;;;;;;12.25;8.15;;;11.90;65.40;;;;;;5075349;28;20121;-72
2021/03/07 09:22:11;;;;;;;11.88;7.32;;;12.10;65.10;;;;;;5075634;28;20024;-73
2021/03/07 09:24:38;;;;;;;11.48;6.93;;;12.20;64.90;;;;;;5075583;28;20025;-73
2021/03/07 09:27:11;;;;;;;14.02;7.53;;;12.20;64.00;;;;;;5075169;28;20369;-71
2021/03/07 09:29:50;;;;;;;13.95;8.57;;;12.30;64.00;;;;;;5075420;28;20028;-71
2021/03/07 09:32:36;;;;;;;12.55;8.25;;;12.30;64.00;;;;;;5075167;28;20436;-73
2021/03/07 09:35:16;;;;;;;13.52;8.05;;;12.20;64.00;;;;;;5074987;28;20466;-72
2021/03/07 09:37:42;;;;;;;12.63;7.47;;;12.20;64.40;;;;;;5074937;28;20063;-75
2021/03/07 09:40:14;;;;;;;13.93;9.65;;;12.30;63.90;;;;;;5074929;28;20047;-72
2021/03/07 09:42:41;;;;;;;19.17;8.05;;;12.30;64.30;;;;;;5075199;28;20025;-72
2021/03/07 09:45:09;;;;;;;11.85;8.02;;;12.30;64.40;;;;;;5074707;28;20021;-72
2021/03/07 09:47:35;;;;;;;13.73;8.55;;;12.50;64.20;;;;;;5074777;28;20095;-72
2021/03/07 09:50:02;;;;;;;14.35;8.77;;;12.60;63.90;;;;;;5074688;28;20100;-72
2021/03/07 09:52:28;;;;;;;16.05;9.05;;;12.60;63.50;;;;;;5074702;28;20039;-73
2021/03/07 09:54:57;;;;;;;16.08;9.20;;;12.70;63.60;;;;;;5074173;28;20021;-72
2021/03/07 09:57:23;;;;;;;15.10;8.82;;;12.70;63.50;;;;;;5074279;28;20033;-72
2021/03/07 09:59:52;;;;;;;14.35;9.45;;;12.80;63.60;;;;;;5074254;28;20359;-73
2021/03/07 10:02:19;;;;;;;18.00;9.75;;;12.80;63.50;;;;;;5056031;28;20020;-72
2021/03/07 10:04:46;;;;;;;16.95;8.98;;;12.80;63.50;;;;;;5074094;28;20048;-74
2021/03/07 10:07:12;;;;;;;15.15;9.27;;;12.80;63.40;;;;;;5074324;28;20539;-72
2021/03/07 10:09:57;;;;;;;18.80;8.88;;;12.70;63.80;;;;;;5074337;28;20028;-71
2021/03/07 10:12:23;;;;;;;16.40;8.85;;;12.70;64.40;;;;;;5074399;28;20025;-72
2021/03/07 10:14:55;;;;;;;12.85;8.80;;;12.70;63.90;;;;;;5074269;28;20013;-73
2021/03/07 10:17:22;;;;;;;13.63;8.70;;;12.80;64.20;;;;;;5073580;28;20074;-71
2021/03/07 10:19:48;;;;;;;14.10;8.90;;;12.80;63.90;;;;;;5074055;28;20485;-72
2021/03/07 10:22:14;;;;;;;13.25;8.65;;;12.80;63.80;;;;;;5073738;28;20078;-71
2021/03/07 10:24:40;;;;;;;17.23;9.35;;;13.00;63.70;;;;;;5074006;28;20025;-73
2021/03/07 10:27:09;;;;;;;12.85;8.60;;;13.10;63.20;;;;;;5073746;28;20021;-71
2021/03/07 10:29:41;;;;;;;15.32;9.13;;;13.40;62.90;;;;;;5073671;28;20059;-70
2021/03/07 10:32:15;;;;;;;15.75;9.52;;;13.60;62.60;;;;;;5073760;28;20020;-74
2021/03/07 10:34:59;;;;;;;15.45;9.52;;;13.60;62.30;;;;;;5073715;28;20086;-72
2021/03/07 10:37:37;;;;;;;18.17;9.65;;;13.70;62.40;;;;;;5074056;28;20021;-72
2021/03/07 10:40:11;;;;;;;15.00;10.02;;;13.80;62.40;;;;;;5073532;28;20525;-70
2021/03/07 10:42:42;;;;;;;15.73;10.00;;;13.90;62.30;;;;;;5055701;28;20017;-72
2021/03/07 10:45:17;;;;;;;16.98;10.00;;;14.00;62.00;;;;;;5073712;28;20376;-72
2021/03/07 10:47:44;;;;;;;15.45;9.60;;;14.00;61.90;;;;;;5073734;28;20023;-71
2021/03/07 10:50:11;;;;;;;13.55;9.30;;;13.90;61.80;;;;;;5073404;28;20024;-72
2021/03/07 10:52:36;;;;;;;14.32;10.35;;;13.80;62.30;;;;;;5055371;28;20029;-71
2021/03/07 10:55:14;;;;;;;15.05;10.30;;;13.80;62.40;;;;;;5073369;28;20043;-72
2021/03/07 10:57:40;;;;;;;14.52;10.23;;;13.80;62.70;;;;;;5055330;28;20497;-73
2021/03/07 11:00:06;;;;;;;16.95;10.27;;;13.80;62.50;;;;;;5073215;28;20068;-72
2021/03/07 11:02:33;;;;;;;18.17;10.90;;;13.80;62.80;;;;;;5073199;28;20107;-71
2021/03/07 11:04:58;;;;;;;18.75;10.23;;;13.90;62.60;;;;;;5073107;28;20063;-71
2021/03/07 11:07:24;;;;;;;18.38;9.48;;;13.90;62.40;;;;;;5072412;28;20028;-72
2021/03/07 11:09:50;;;;;;;14.02;9.25;;;13.90;62.20;;;;;;5073252;28;20021;-72
2021/03/07 11:12:15;;;;;;;16.83;9.18;;;13.90;62.40;;;;;;5072785;28;20063;-75
2021/03/07 11:14:41;;;;;;;16.85;9.95;;;13.80;62.40;;;;;;5073129;28;20424;-74
2021/03/07 11:17:07;;;;;;;15.45;10.48;;;13.80;62.60;;;;;;5072772;28;20048;-71
2021/03/07 11:19:32;;;;;;;14.98;10.30;;;13.90;62.50;;;;;;5072795;28;20041;-72
2021/03/07 11:21:58;;;;;;;17.75;10.40;;;14.00;62.40;;;;;;5072673;28;20569;-73
2021/03/07 11:24:24;;;;;;;16.35;10.10;;;14.20;62.40;;;;;;5072972;28;20025;-72
2021/03/07 11:26:51;;;;;;;17.77;10.23;;;14.30;62.30;;;;;;5072587;28;20029;-72
2021/03/07 11:29:16;;;;;;;15.77;10.65;;;14.40;62.30;;;;;;5072998;28;20405;-72
2021/03/07 11:31:42;;;;;;;14.90;10.55;;;14.50;61.90;;;;;;5072808;28;20046;-72
2021/03/07 11:34:08;;;;;;;24.10;11.63;;;14.50;61.60;;;;;;5072668;28;20024;-72
2021/03/07 11:36:34;;;;;;;16.35;10.27;;;14.60;61.90;;;;;;5072508;28;20029;-71
2021/03/07 11:38:59;;;;;;;16.67;11.15;;;14.70;61.50;;;;;;5073161;28;20469;-73
2021/03/07 11:41:25;;;;;;;20.20;11.88;;;14.80;61.60;;;;;;5055050;28;20033;-71
2021/03/07 11:43:51;;;;;;;16.25;11.50;;;14.70;61.70;;;;;;5072841;28;20092;-71
2021/03/07 11:46:16;;;;;;;17.42;11.27;;;14.60;61.60;;;;;;5072528;28;20024;-71
2021/03/07 11:48:42;;;;;;;17.15;12.05;;;14.50;61.80;;;;;;5072744;28;20028;-73
2021/03/07 11:51:08;;;;;;;17.95;11.90;;;14.50;62.00;;;;;;5072268;28;20049;-72
2021/03/07 11:53:33;;;;;;;14.77;10.65;;;14.40;62.00;;;;;;5072466;28;20079;-72
2021/03/07 11:55:59;;;;;;;19.40;11.43;;;14.30;62.20;;;;;;5072288;28;20058;-73
2021/03/07 11:58:25;;;;;;;18.50;11.82;;;14.30;62.50;;;;;;5072639;28;20072;-72
2021/03/07 12:00:51;;;;;;;24.00;11.85;;;14.40;62.70;;;;;;5072501;28;20075;-73
2021/03/07 12:03:17;;;;;;;17.08;11.30;;;14.50;62.50;;;;;;5072296;28;20370;-72
2021/03/07 12:05:43;;;;;;;19.02;11.57;;;14.80;62.30;;;;;;5072098;28;20031;-71
2021/03/07 12:08:08;;;;;;;18.65;12.18;;;14.90;62.00;;;;;;5072233;28;20424;-73
2021/03/07 12:10:34;;;;;;;16.65;11.88;;;15.00;61.80;;;;;;5072667;28;20127;-72
2021/03/07 12:13:00;;;;;;;17.67;11.65;;;15.00;62.00;;;;;;5072357;28;20029;-71
2021/03/07 12:15:26;;;;;;;19.15;11.82;;;15.00;61.80;;;;;;5054261;28;20078;-73
2021/03/07 12:17:51;;;;;;;13.73;11.80;;;15.20;62.00;;;;;;5072384;28;20037;-73
2021/03/07 12:20:17;;;;;;;17.42;11.90;;;15.20;61.70;;;;;;5076273;28;20037;-73
2021/03/07 12:22:45;;;;;;;17.90;12.57;;;15.20;61.50;;;;;;5076035;28;20024;-72
2021/03/07 12:25:11;;;;;;;16.15;12.80;;;15.20;61.30;;;;;;5075835;28;20036;-72
2021/03/07 12:27:37;;;;;;;20.40;14.23;;;15.30;61.40;;;;;;5076362;28;20027;-72
2021/03/07 12:30:04;;;;;;;18.75;12.02;;;15.30;61.40;;;;;;5076278;28;20099;-72
2021/03/07 12:32:30;;;;;;;18.15;13.10;;;15.10;61.70;;;;;;5076037;28;20377;-74
2021/03/07 12:34:56;;;;;;;20.05;12.35;;;15.00;62.00;;;;;;5075599;28;20024;-74
2021/03/07 12:37:22;;;;;;;18.92;12.63;;;14.90;62.40;;;;;;5076161;28;20040;-71
2021/03/07 12:39:47;;;;;;;20.85;13.48;;;14.80;62.50;;;;;;5076026;28;20031;-74
2021/03/07 12:42:13;;;;;;;19.13;12.20;;;14.60;62.80;;;;;;5076020;28;20040;-74